sensor_id;sensor_type;location;lat;lon;timestamp;temperature;humidity
35491;DHT22;21605;52.068;20.806;2023-03-01T00:00:41;-1.70;84.00
35491;DHT22;21605;52.068;20.806;2023-03-01T00:03:11;-1.70;84.60
35491;DHT22;21605;52.068;20.806;2023-03-01T00:05:46;-1.70;84.40
35491;DHT22;21605;52.068;20.806;2023-03-01T00:08:12;-1.70;84.90
35491;DHT22;21605;52.068;20.806;2023-03-01T00:10:38;-1.70;85.30
35491;DHT22;21605;52.068;20.806;2023-03-01T00:13:09;-1.70;85.20
35491;DHT22;21605;52.068;20.806;2023-03-01T00:15:39;-1.70;84.90
35491;DHT22;21605;52.068;20.806;2023-03-01T00:18:05;-1.70;85.80
35491;DHT22;21605;52.068;20.806;2023-03-01T00:20:30;-1.70;84.60
35491;DHT22;21605;52.068;20.806;2023-03-01T00:22:56;-1.70;84.90
35491;DHT22;21605;52.068;20.806;2023-03-01T00:25:21;-1.80;84.30
35491;DHT22;21605;52.068;20.806;2023-03-01T00:27:47;-1.80;85.20
35491;DHT22;21605;52.068;20.806;2023-03-01T00:30:14;-1.80;85.20
35491;DHT22;21605;52.068;20.806;2023-03-01T00:32:40;-1.80;85.20
35491;DHT22;21605;52.068;20.806;2023-03-01T00:35:06;-1.80;86.10
35491;DHT22;21605;52.068;20.806;2023-03-01T00:37:31;-1.80;85.60
35491;DHT22;21605;52.068;20.806;2023-03-01T00:39:57;-1.80;85.90
35491;DHT22;21605;52.068;20.806;2023-03-01T00:42:22;0.80;87.50
35491;DHT22;21605;52.068;20.806;2023-03-01T00:44:48;-1.80;86.20
35491;DHT22;21605;52.068;20.806;2023-03-01T00:47:14;-1.80;85.90
35491;DHT22;21605;52.068;20.806;2023-03-01T00:49:39;-1.80;85.60
35491;DHT22;21605;52.068;20.806;2023-03-01T00:52:08;-1.80;86.20
35491;DHT22;21605;52.068;20.806;2023-03-01T00:54:33;-1.80;86.40
35491;DHT22;21605;52.068;20.806;2023-03-01T00:56:59;-1.80;86.30
35491;DHT22;21605;52.068;20.806;2023-03-01T00:59:25;-1.80;87.00
35491;DHT22;21605;52.068;20.806;2023-03-01T01:01:50;-1.70;86.50
35491;DHT22;21605;52.068;20.806;2023-03-01T01:04:16;-1.80;86.80
35491;DHT22;21605;52.068;20.806;2023-03-01T01:06:43;-1.80;87.80
35491;DHT22;21605;52.068;20.806;2023-03-01T01:09:18;-1.80;86.70
35491;DHT22;21605;52.068;20.806;2023-03-01T01:11:50;-1.80;87.60
35491;DHT22;21605;52.068;20.806;2023-03-01T01:14:21;-1.80;87.80
35491;DHT22;21605;52.068;20.806;2023-03-01T01:16:47;-1.70;88.20
35491;DHT22;21605;52.068;20.806;2023-03-01T01:19:14;-1.70;88.80
35491;DHT22;21605;52.068;20.806;2023-03-01T01:21:40;-1.70;88.00
35491;DHT22;21605;52.068;20.806;2023-03-01T01:24:14;-1.70;88.10
35491;DHT22;21605;52.068;20.806;2023-03-01T01:26:40;-1.70;89.10
35491;DHT22;21605;52.068;20.806;2023-03-01T01:29:12;-1.70;87.70
35491;DHT22;21605;52.068;20.806;2023-03-01T01:31:39;-1.70;87.90
35491;DHT22;21605;52.068;20.806;2023-03-01T01:34:17;-1.70;88.40
35491;DHT22;21605;52.068;20.806;2023-03-01T01:36:43;-1.70;88.40
35491;DHT22;21605;52.068;20.806;2023-03-01T01:39:12;-1.70;88.30
35491;DHT22;21605;52.068;20.806;2023-03-01T01:41:39;-1.70;88.10
35491;DHT22;21605;52.068;20.806;2023-03-01T01:44:20;-1.70;88.50
35491;DHT22;21605;52.068;20.806;2023-03-01T01:46:50;-1.70;88.30
35491;DHT22;21605;52.068;20.806;2023-03-01T01:49:35;-1.70;88.30
35491;DHT22;21605;52.068;20.806;2023-03-01T01:52:35;-1.70;89.10
35491;DHT22;21605;52.068;20.806;2023-03-01T01:57:52;-1.70;89.10
35491;DHT22;21605;52.068;20.806;2023-03-01T02:00:29;-1.70;89.30
35491;DHT22;21605;52.068;20.806;2023-03-01T02:03:01;-1.70;89.20
35491;DHT22;21605;52.068;20.806;2023-03-01T02:06:12;-1.70;89.40
35491;DHT22;21605;52.068;20.806;2023-03-01T02:08:42;-1.70;88.90
35491;DHT22;21605;52.068;20.806;2023-03-01T02:11:10;-1.70;89.20
35491;DHT22;21605;52.068;20.806;2023-03-01T02:13:36;-1.70;89.30
35491;DHT22;21605;52.068;20.806;2023-03-01T02:16:13;-1.70;90.00
35491;DHT22;21605;52.068;20.806;2023-03-01T02:18:40;-1.70;90.20
35491;DHT22;21605;52.068;20.806;2023-03-01T02:27:22;-1.70;90.00
35491;DHT22;21605;52.068;20.806;2023-03-01T02:29:51;-1.70;90.30
35491;DHT22;21605;52.068;20.806;2023-03-01T02:32:17;-3.10;89.30
35491;DHT22;21605;52.068;20.806;2023-03-01T02:34:52;-1.00;90.60
35491;DHT22;21605;52.068;20.806;2023-03-01T02:37:19;-1.70;90.10
35491;DHT22;21605;52.068;20.806;2023-03-01T02:39:54;-1.80;90.10
35491;DHT22;21605;52.068;20.806;2023-03-01T02:42:26;-1.70;90.00
35491;DHT22;21605;52.068;20.806;2023-03-01T02:44:51;-1.70;90.10
35491;DHT22;21605;52.068;20.806;2023-03-01T02:47:19;-1.80;90.70
35491;DHT22;21605;52.068;20.806;2023-03-01T02:49:44;-1.80;90.70
35491;DHT22;21605;52.068;20.806;2023-03-01T02:55:17;-1.80;90.50
35491;DHT22;21605;52.068;20.806;2023-03-01T02:57:44;-1.80;90.50
35491;DHT22;21605;52.068;20.806;2023-03-01T03:00:21;-1.80;90.90
35491;DHT22;21605;52.068;20.806;2023-03-01T03:02:50;-1.80;91.00
35491;DHT22;21605;52.068;20.806;2023-03-01T03:05:19;-1.80;90.60
35491;DHT22;21605;52.068;20.806;2023-03-01T03:07:46;-1.80;90.90
35491;DHT22;21605;52.068;20.806;2023-03-01T03:10:38;-1.80;90.80
35491;DHT22;21605;52.068;20.806;2023-03-01T03:13:16;-1.80;90.80
35491;DHT22;21605;52.068;20.806;2023-03-01T03:15:43;-1.80;91.00
35491;DHT22;21605;52.068;20.806;2023-03-01T03:18:16;-1.80;91.20
35491;DHT22;21605;52.068;20.806;2023-03-01T03:20:43;-1.80;91.00
35491;DHT22;21605;52.068;20.806;2023-03-01T03:23:10;-1.80;91.00
35491;DHT22;21605;52.068;20.806;2023-03-01T03:25:36;-1.80;91.10
35491;DHT22;21605;52.068;20.806;2023-03-01T03:28:04;-1.80;91.10
35491;DHT22;21605;52.068;20.806;2023-03-01T03:30:49;-1.80;91.10
35491;DHT22;21605;52.068;20.806;2023-03-01T03:33:20;-1.80;91.00
35491;DHT22;21605;52.068;20.806;2023-03-01T03:35:48;-1.80;91.40
35491;DHT22;21605;52.068;20.806;2023-03-01T03:38:19;-1.80;91.20
35491;DHT22;21605;52.068;20.806;2023-03-01T03:40:54;-1.80;91.20
35491;DHT22;21605;52.068;20.806;2023-03-01T03:43:26;-1.80;91.20
35491;DHT22;21605;52.068;20.806;2023-03-01T03:45:52;-1.80;91.70
35491;DHT22;21605;52.068;20.806;2023-03-01T03:48:20;-1.80;92.10
35491;DHT22;21605;52.068;20.806;2023-03-01T03:50:54;-1.80;92.00
35491;DHT22;21605;52.068;20.806;2023-03-01T03:53:22;-1.80;92.00
35491;DHT22;21605;52.068;20.806;2023-03-01T03:55:48;-1.80;91.70
35491;DHT22;21605;52.068;20.806;2023-03-01T03:58:22;-1.80;92.10
35491;DHT22;21605;52.068;20.806;2023-03-01T04:00:51;-1.80;92.10
35491;DHT22;21605;52.068;20.806;2023-03-01T04:03:27;-1.70;92.50
35491;DHT22;21605;52.068;20.806;2023-03-01T04:05:53;-1.70;92.70
35491;DHT22;21605;52.068;20.806;2023-03-01T04:08:25;-1.70;93.30
35491;DHT22;21605;52.068;20.806;2023-03-01T04:10:52;-1.70;93.70
35491;DHT22;21605;52.068;20.806;2023-03-01T04:13:22;-1.70;92.90
35491;DHT22;21605;52.068;20.806;2023-03-01T04:15:50;-1.70;93.00
35491;DHT22;21605;52.068;20.806;2023-03-01T04:18:16;-1.70;92.80
35491;DHT22;21605;52.068;20.806;2023-03-01T04:20:43;-1.60;93.00
35491;DHT22;21605;52.068;20.806;2023-03-01T04:23:20;-1.60;93.00
35491;DHT22;21605;52.068;20.806;2023-03-01T04:25:52;-1.60;93.00
35491;DHT22;21605;52.068;20.806;2023-03-01T04:28:37;-1.60;93.40
35491;DHT22;21605;52.068;20.806;2023-03-01T04:31:06;-1.60;93.00
35491;DHT22;21605;52.068;20.806;2023-03-01T04:33:53;0.00;93.40
35491;DHT22;21605;52.068;20.806;2023-03-01T04:36:23;-1.60;94.00
35491;DHT22;21605;52.068;20.806;2023-03-01T04:38:49;-1.60;93.50
35491;DHT22;21605;52.068;20.806;2023-03-01T04:41:27;-1.60;93.30
35491;DHT22;21605;52.068;20.806;2023-03-01T04:43:52;-1.60;93.30
35491;DHT22;21605;52.068;20.806;2023-03-01T04:46:21;-1.60;93.30
35491;DHT22;21605;52.068;20.806;2023-03-01T04:48:47;-1.50;93.10
35491;DHT22;21605;52.068;20.806;2023-03-01T04:51:22;-1.50;93.30
35491;DHT22;21605;52.068;20.806;2023-03-01T04:53:47;-1.50;93.10
35491;DHT22;21605;52.068;20.806;2023-03-01T04:56:22;-1.60;93.10
35491;DHT22;21605;52.068;20.806;2023-03-01T04:58:48;-1.50;93.20
35491;DHT22;21605;52.068;20.806;2023-03-01T05:01:23;-1.60;93.30
35491;DHT22;21605;52.068;20.806;2023-03-01T05:03:50;-1.50;93.20
35491;DHT22;21605;52.068;20.806;2023-03-01T05:06:25;-1.60;93.40
35491;DHT22;21605;52.068;20.806;2023-03-01T05:08:51;-1.50;93.50
35491;DHT22;21605;52.068;20.806;2023-03-01T05:11:25;-1.50;93.60
35491;DHT22;21605;52.068;20.806;2023-03-01T05:13:53;-1.50;93.60
35491;DHT22;21605;52.068;20.806;2023-03-01T05:16:25;-1.50;93.50
35491;DHT22;21605;52.068;20.806;2023-03-01T05:18:51;-1.50;93.40
35491;DHT22;21605;52.068;20.806;2023-03-01T05:21:26;-1.50;93.80
35491;DHT22;21605;52.068;20.806;2023-03-01T05:23:52;-1.50;94.10
35491;DHT22;21605;52.068;20.806;2023-03-01T05:26:19;-1.50;94.10
35491;DHT22;21605;52.068;20.806;2023-03-01T05:28:47;-1.50;94.40
35491;DHT22;21605;52.068;20.806;2023-03-01T05:31:13;-1.50;94.30
35491;DHT22;21605;52.068;20.806;2023-03-01T05:33:40;-1.50;94.50
35491;DHT22;21605;52.068;20.806;2023-03-01T05:36:07;-1.50;94.80
35491;DHT22;21605;52.068;20.806;2023-03-01T05:38:33;-1.50;94.30
35491;DHT22;21605;52.068;20.806;2023-03-01T05:40:59;-1.40;94.20
35491;DHT22;21605;52.068;20.806;2023-03-01T05:43:25;-1.40;94.40
35491;DHT22;21605;52.068;20.806;2023-03-01T05:45:51;-1.40;94.90
35491;DHT22;21605;52.068;20.806;2023-03-01T05:48:22;-1.40;94.80
35491;DHT22;21605;52.068;20.806;2023-03-01T05:50:48;-1.40;94.80
35491;DHT22;21605;52.068;20.806;2023-03-01T05:53:29;-1.30;94.80
35491;DHT22;21605;52.068;20.806;2023-03-01T05:55:55;-1.30;94.80
35491;DHT22;21605;52.068;20.806;2023-03-01T05:58:29;-1.30;95.00
35491;DHT22;21605;52.068;20.806;2023-03-01T06:00:55;-1.30;94.60
35491;DHT22;21605;52.068;20.806;2023-03-01T06:03:26;-1.20;95.30
35491;DHT22;21605;52.068;20.806;2023-03-01T06:05:57;-1.20;95.60
35491;DHT22;21605;52.068;20.806;2023-03-01T06:08:23;-1.20;95.70
35491;DHT22;21605;52.068;20.806;2023-03-01T06:10:49;-1.10;95.70
35491;DHT22;21605;52.068;20.806;2023-03-01T06:13:24;-1.10;96.20
35491;DHT22;21605;52.068;20.806;2023-03-01T06:15:49;-1.10;96.10
35491;DHT22;21605;52.068;20.806;2023-03-01T06:18:30;-1.00;96.10
35491;DHT22;21605;52.068;20.806;2023-03-01T06:20:56;-1.00;96.30
35491;DHT22;21605;52.068;20.806;2023-03-01T06:23:28;-0.90;96.50
35491;DHT22;21605;52.068;20.806;2023-03-01T06:25:54;-0.90;96.50
35491;DHT22;21605;52.068;20.806;2023-03-01T06:28:25;-0.80;96.50
35491;DHT22;21605;52.068;20.806;2023-03-01T06:30:51;-0.70;96.60
35491;DHT22;21605;52.068;20.806;2023-03-01T06:33:26;-0.70;96.70
35491;DHT22;21605;52.068;20.806;2023-03-01T06:35:54;-0.60;97.10
35491;DHT22;21605;52.068;20.806;2023-03-01T06:38:25;-0.50;97.50
35491;DHT22;21605;52.068;20.806;2023-03-01T06:40:53;-0.30;97.00
35491;DHT22;21605;52.068;20.806;2023-03-01T06:43:28;-0.30;96.90
35491;DHT22;21605;52.068;20.806;2023-03-01T06:45:54;-0.20;97.30
35491;DHT22;21605;52.068;20.806;2023-03-01T06:48:26;-0.10;97.70
35491;DHT22;21605;52.068;20.806;2023-03-01T06:50:51;-0.10;97.70
35491;DHT22;21605;52.068;20.806;2023-03-01T06:53:23;0.00;97.40
35491;DHT22;21605;52.068;20.806;2023-03-01T06:55:54;0.20;97.90
35491;DHT22;21605;52.068;20.806;2023-03-01T06:58:29;0.50;98.10
35491;DHT22;21605;52.068;20.806;2023-03-01T07:00:55;1.00;98.40
35491;DHT22;21605;52.068;20.806;2023-03-01T07:03:29;1.40;98.00
35491;DHT22;21605;52.068;20.806;2023-03-01T07:05:55;1.60;97.20
35491;DHT22;21605;52.068;20.806;2023-03-01T07:08:23;1.70;96.90
35491;DHT22;21605;52.068;20.806;2023-03-01T07:10:55;1.90;96.30
35491;DHT22;21605;52.068;20.806;2023-03-01T07:13:21;2.20;96.20
35491;DHT22;21605;52.068;20.806;2023-03-01T07:15:46;2.50;96.00
35491;DHT22;21605;52.068;20.806;2023-03-01T07:18:12;2.60;94.70
35491;DHT22;21605;52.068;20.806;2023-03-01T07:20:37;2.50;94.30
35491;DHT22;21605;52.068;20.806;2023-03-01T07:23:05;2.50;94.10
35491;DHT22;21605;52.068;20.806;2023-03-01T07:25:31;2.40;93.70
35491;DHT22;21605;52.068;20.806;2023-03-01T07:27:57;2.50;94.00
35491;DHT22;21605;52.068;20.806;2023-03-01T07:30:32;2.80;94.10
35491;DHT22;21605;52.068;20.806;2023-03-01T07:32:58;3.00;94.20
35491;DHT22;21605;52.068;20.806;2023-03-01T07:35:30;3.00;93.90
35491;DHT22;21605;52.068;20.806;2023-03-01T07:37:56;3.00;93.60
35491;DHT22;21605;52.068;20.806;2023-03-01T07:40:27;3.00;93.60
35491;DHT22;21605;52.068;20.806;2023-03-01T07:42:56;3.00;93.40
35491;DHT22;21605;52.068;20.806;2023-03-01T07:45:28;2.90;93.20
35491;DHT22;21605;52.068;20.806;2023-03-01T07:47:55;2.90;93.20
35491;DHT22;21605;52.068;20.806;2023-03-01T07:50:29;2.90;93.10
35491;DHT22;21605;52.068;20.806;2023-03-01T07:52:55;2.90;93.60
35491;DHT22;21605;52.068;20.806;2023-03-01T07:55:30;2.90;93.30
35491;DHT22;21605;52.068;20.806;2023-03-01T07:57:55;2.90;93.00
35491;DHT22;21605;52.068;20.806;2023-03-01T08:00:21;2.90;93.20
35491;DHT22;21605;52.068;20.806;2023-03-01T08:02:47;3.00;93.20
35491;DHT22;21605;52.068;20.806;2023-03-01T08:05:12;3.00;93.00
35491;DHT22;21605;52.068;20.806;2023-03-01T08:07:38;3.00;93.00
35491;DHT22;21605;52.068;20.806;2023-03-01T08:10:04;3.10;93.10
35491;DHT22;21605;52.068;20.806;2023-03-01T08:12:30;3.10;92.90
35491;DHT22;21605;52.068;20.806;2023-03-01T08:14:57;3.20;93.00
35491;DHT22;21605;52.068;20.806;2023-03-01T08:17:31;3.20;92.90
35491;DHT22;21605;52.068;20.806;2023-03-01T08:19:57;3.20;92.70
35491;DHT22;21605;52.068;20.806;2023-03-01T08:22:31;3.30;92.90
35491;DHT22;21605;52.068;20.806;2023-03-01T08:24:57;3.30;92.90
35491;DHT22;21605;52.068;20.806;2023-03-01T08:27:32;3.30;92.70
35491;DHT22;21605;52.068;20.806;2023-03-01T08:29:57;3.30;92.60
35491;DHT22;21605;52.068;20.806;2023-03-01T08:32:37;3.40;92.70
35491;DHT22;21605;52.068;20.806;2023-03-01T08:35:03;3.50;93.00
35491;DHT22;21605;52.068;20.806;2023-03-01T08:37:28;3.60;92.70
35491;DHT22;21605;52.068;20.806;2023-03-01T08:39:56;3.70;92.80
35491;DHT22;21605;52.068;20.806;2023-03-01T08:42:30;3.80;92.90
35491;DHT22;21605;52.068;20.806;2023-03-01T08:44:57;4.00;92.90
35491;DHT22;21605;52.068;20.806;2023-03-01T08:47:32;4.60;93.30
35491;DHT22;21605;52.068;20.806;2023-03-01T08:49:59;5.50;93.50
35491;DHT22;21605;52.068;20.806;2023-03-01T08:52:34;6.70;96.10
35491;DHT22;21605;52.068;20.806;2023-03-01T08:54:59;7.90;94.10
35491;DHT22;21605;52.068;20.806;2023-03-01T08:57:32;9.00;91.20
35491;DHT22;21605;52.068;20.806;2023-03-01T08:59:57;10.10;90.10
35491;DHT22;21605;52.068;20.806;2023-03-01T09:02:32;11.10;86.50
35491;DHT22;21605;52.068;20.806;2023-03-01T09:04:58;12.00;83.60
35491;DHT22;21605;52.068;20.806;2023-03-01T09:07:26;12.80;79.80
35491;DHT22;21605;52.068;20.806;2023-03-01T09:09:53;13.40;73.30
35491;DHT22;21605;52.068;20.806;2023-03-01T09:12:20;13.80;70.50
35491;DHT22;21605;52.068;20.806;2023-03-01T09:14:46;14.20;70.40
35491;DHT22;21605;52.068;20.806;2023-03-01T09:17:11;14.60;65.50
35491;DHT22;21605;52.068;20.806;2023-03-01T09:19:37;14.70;64.70
35491;DHT22;21605;52.068;20.806;2023-03-01T09:22:04;14.90;61.00
35491;DHT22;21605;52.068;20.806;2023-03-01T09:24:33;15.20;61.10
35491;DHT22;21605;52.068;20.806;2023-03-01T09:26:58;15.40;59.50
35491;DHT22;21605;52.068;20.806;2023-03-01T09:29:33;15.30;59.90
35491;DHT22;21605;52.068;20.806;2023-03-01T09:31:59;15.70;60.30
35491;DHT22;21605;52.068;20.806;2023-03-01T09:34:25;15.80;60.00
35491;DHT22;21605;52.068;20.806;2023-03-01T09:36:51;15.80;58.80
35491;DHT22;21605;52.068;20.806;2023-03-01T09:39:17;16.00;58.60
35491;DHT22;21605;52.068;20.806;2023-03-01T09:47:12;16.20;58.40
35491;DHT22;21605;52.068;20.806;2023-03-01T09:49:41;16.20;57.00
35491;DHT22;21605;52.068;20.806;2023-03-01T09:55:55;16.40;57.00
35491;DHT22;21605;52.068;20.806;2023-03-01T10:06:57;16.70;54.30
35491;DHT22;21605;52.068;20.806;2023-03-01T10:09:23;16.60;53.60
35491;DHT22;21605;52.068;20.806;2023-03-01T10:11:53;16.80;55.00
35491;DHT22;21605;52.068;20.806;2023-03-01T10:14:48;16.70;55.20
35491;DHT22;21605;52.068;20.806;2023-03-01T10:17:46;16.70;55.30
35491;DHT22;21605;52.068;20.806;2023-03-01T10:22:42;17.00;54.60
35491;DHT22;21605;52.068;20.806;2023-03-01T10:25:14;16.90;53.10
35491;DHT22;21605;52.068;20.806;2023-03-01T10:27:52;17.10;54.10
35491;DHT22;21605;52.068;20.806;2023-03-01T10:32:51;17.60;53.10
35491;DHT22;21605;52.068;20.806;2023-03-01T10:38:08;18.30;54.10
35491;DHT22;21605;52.068;20.806;2023-03-01T10:41:06;18.40;53.40
35491;DHT22;21605;52.068;20.806;2023-03-01T10:43:46;18.60;51.10
35491;DHT22;21605;52.068;20.806;2023-03-01T10:46:40;19.00;53.00
35491;DHT22;21605;52.068;20.806;2023-03-01T10:49:22;18.90;50.60
35491;DHT22;21605;52.068;20.806;2023-03-01T10:51:52;19.10;50.70
35491;DHT22;21605;52.068;20.806;2023-03-01T10:54:29;19.10;51.30
35491;DHT22;21605;52.068;20.806;2023-03-01T10:57:28;19.10;49.60
35491;DHT22;21605;52.068;20.806;2023-03-01T11:03:33;20.00;50.70
35491;DHT22;21605;52.068;20.806;2023-03-01T11:05:33;20.20;48.90
35491;DHT22;21605;52.068;20.806;2023-03-01T11:08:00;20.60;49.60
35491;DHT22;21605;52.068;20.806;2023-03-01T11:10:35;20.70;50.60
35491;DHT22;21605;52.068;20.806;2023-03-01T11:13:16;20.80;47.20
35491;DHT22;21605;52.068;20.806;2023-03-01T11:15:42;20.90;48.90
35491;DHT22;21605;52.068;20.806;2023-03-01T11:18:20;20.60;46.00
35491;DHT22;21605;52.068;20.806;2023-03-01T11:20:46;21.00;47.90
35491;DHT22;21605;52.068;20.806;2023-03-01T11:23:14;21.20;48.60
35491;DHT22;21605;52.068;20.806;2023-03-01T11:25:43;21.10;47.40
35491;DHT22;21605;52.068;20.806;2023-03-01T11:28:14;21.10;47.20
35491;DHT22;21605;52.068;20.806;2023-03-01T11:34:42;20.20;46.00
35491;DHT22;21605;52.068;20.806;2023-03-01T11:36:56;20.10;47.20
35491;DHT22;21605;52.068;20.806;2023-03-01T11:39:47;19.50;46.40
35491;DHT22;21605;52.068;20.806;2023-03-01T11:42:19;19.30;49.30
35491;DHT22;21605;52.068;20.806;2023-03-01T11:44:53;19.00;48.40
35491;DHT22;21605;52.068;20.806;2023-03-01T11:50:29;18.30;48.70
35491;DHT22;21605;52.068;20.806;2023-03-01T11:56:01;18.30;51.20
35491;DHT22;21605;52.068;20.806;2023-03-01T12:05:24;17.20;51.10
35491;DHT22;21605;52.068;20.806;2023-03-01T12:07:57;16.70;51.40
35491;DHT22;21605;52.068;20.806;2023-03-01T12:10:26;16.10;52.00
35491;DHT22;21605;52.068;20.806;2023-03-01T12:20:59;14.40;55.20
35491;DHT22;21605;52.068;20.806;2023-03-01T12:29:40;13.60;57.40
35491;DHT22;21605;52.068;20.806;2023-03-01T12:38:50;12.80;58.80
35491;DHT22;21605;52.068;20.806;2023-03-01T12:47:22;12.20;60.70
35491;DHT22;21605;52.068;20.806;2023-03-01T12:50:00;11.90;61.00
35491;DHT22;21605;52.068;20.806;2023-03-01T12:52:51;11.90;61.80
35491;DHT22;21605;52.068;20.806;2023-03-01T12:55:33;11.80;62.60
35491;DHT22;21605;52.068;20.806;2023-03-01T12:58:24;11.60;62.70
35491;DHT22;21605;52.068;20.806;2023-03-01T13:01:35;11.60;62.80
35491;DHT22;21605;52.068;20.806;2023-03-01T13:12:57;11.30;64.40
35491;DHT22;21605;52.068;20.806;2023-03-01T13:15:36;11.20;64.70
35491;DHT22;21605;52.068;20.806;2023-03-01T13:18:03;11.20;64.90
35491;DHT22;21605;52.068;20.806;2023-03-01T13:34:06;10.80;66.60
35491;DHT22;21605;52.068;20.806;2023-03-01T13:36:52;10.70;66.70
35491;DHT22;21605;52.068;20.806;2023-03-01T13:39:29;10.60;67.10
35491;DHT22;21605;52.068;20.806;2023-03-01T13:41:58;10.60;67.10
35491;DHT22;21605;52.068;20.806;2023-03-01T13:44:36;10.50;67.30
35491;DHT22;21605;52.068;20.806;2023-03-01T13:57:59;10.30;67.70
35491;DHT22;21605;52.068;20.806;2023-03-01T14:00:34;10.20;68.00
35491;DHT22;21605;52.068;20.806;2023-03-01T14:03:19;10.20;68.10
35491;DHT22;21605;52.068;20.806;2023-03-01T14:06:07;10.10;68.60
35491;DHT22;21605;52.068;20.806;2023-03-01T14:08:35;10.00;68.60
35491;DHT22;21605;52.068;20.806;2023-03-01T14:11:15;9.90;68.90
35491;DHT22;21605;52.068;20.806;2023-03-01T14:17:25;9.70;68.80
35491;DHT22;21605;52.068;20.806;2023-03-01T14:19:57;9.70;68.90
35491;DHT22;21605;52.068;20.806;2023-03-01T14:22:28;9.60;69.00
35491;DHT22;21605;52.068;20.806;2023-03-01T14:24:59;9.50;69.40
35491;DHT22;21605;52.068;20.806;2023-03-01T14:27:35;9.50;69.60
35491;DHT22;21605;52.068;20.806;2023-03-01T14:30:04;9.40;69.70
35491;DHT22;21605;52.068;20.806;2023-03-01T14:32:35;9.40;69.80
35491;DHT22;21605;52.068;20.806;2023-03-01T14:35:01;9.30;70.40
35491;DHT22;21605;52.068;20.806;2023-03-01T14:39:55;9.10;70.70
35491;DHT22;21605;52.068;20.806;2023-03-01T14:42:23;9.10;70.40
35491;DHT22;21605;52.068;20.806;2023-03-01T14:44:51;9.10;70.40
35491;DHT22;21605;52.068;20.806;2023-03-01T14:47:29;9.00;70.80
35491;DHT22;21605;52.068;20.806;2023-03-01T14:50:08;8.90;70.90
35491;DHT22;21605;52.068;20.806;2023-03-01T14:52:57;8.90;71.30
35491;DHT22;21605;52.068;20.806;2023-03-01T14:57:57;8.70;72.10
35491;DHT22;21605;52.068;20.806;2023-03-01T15:00:28;8.60;71.80
35491;DHT22;21605;52.068;20.806;2023-03-01T15:02:56;8.50;73.10
35491;DHT22;21605;52.068;20.806;2023-03-01T15:05:29;8.50;72.80
35491;DHT22;21605;52.068;20.806;2023-03-01T15:07:56;8.40;72.50
35491;DHT22;21605;52.068;20.806;2023-03-01T15:10:33;8.40;72.30
35491;DHT22;21605;52.068;20.806;2023-03-01T15:13:23;8.30;72.70
35491;DHT22;21605;52.068;20.806;2023-03-01T15:15:53;8.30;72.50
35491;DHT22;21605;52.068;20.806;2023-03-01T15:18:29;8.20;73.30
35491;DHT22;21605;52.068;20.806;2023-03-01T15:20:56;8.10;74.10
35491;DHT22;21605;52.068;20.806;2023-03-01T15:23:30;8.10;73.20
35491;DHT22;21605;52.068;20.806;2023-03-01T15:25:57;8.00;73.30
35491;DHT22;21605;52.068;20.806;2023-03-01T15:28:29;8.40;74.10
35491;DHT22;21605;52.068;20.806;2023-03-01T15:31:20;8.20;74.10
35491;DHT22;21605;52.068;20.806;2023-03-01T15:33:46;7.80;74.90
35491;DHT22;21605;52.068;20.806;2023-03-01T15:36:49;7.70;74.10
35491;DHT22;21605;52.068;20.806;2023-03-01T15:39:37;7.70;73.70
35491;DHT22;21605;52.068;20.806;2023-03-01T15:42:05;7.70;73.90
35491;DHT22;21605;52.068;20.806;2023-03-01T15:44:36;7.50;73.80
35491;DHT22;21605;52.068;20.806;2023-03-01T15:47:26;8.00;74.60
35491;DHT22;21605;52.068;20.806;2023-03-01T15:50:00;7.40;74.20
35491;DHT22;21605;52.068;20.806;2023-03-01T15:52:32;7.30;73.90
35491;DHT22;21605;52.068;20.806;2023-03-01T15:55:02;7.30;74.10
35491;DHT22;21605;52.068;20.806;2023-03-01T15:57:29;7.20;74.30
35491;DHT22;21605;52.068;20.806;2023-03-01T15:59:55;7.70;74.70
35491;DHT22;21605;52.068;20.806;2023-03-01T16:02:24;7.60;74.80
35491;DHT22;21605;52.068;20.806;2023-03-01T16:04:50;7.00;74.50
35491;DHT22;21605;52.068;20.806;2023-03-01T16:07:16;6.90;74.70
35491;DHT22;21605;52.068;20.806;2023-03-01T16:09:51;7.30;74.60
35491;DHT22;21605;52.068;20.806;2023-03-01T16:12:17;6.70;74.50
35491;DHT22;21605;52.068;20.806;2023-03-01T16:14:51;6.70;74.90
35491;DHT22;21605;52.068;20.806;2023-03-01T16:17:18;6.60;74.90
35491;DHT22;21605;52.068;20.806;2023-03-01T16:19:46;6.60;75.10
35491;DHT22;21605;52.068;20.806;2023-03-01T16:22:12;6.50;75.10
35491;DHT22;21605;52.068;20.806;2023-03-01T16:24:38;6.40;75.20
35491;DHT22;21605;52.068;20.806;2023-03-01T16:27:03;6.40;76.20
35491;DHT22;21605;52.068;20.806;2023-03-01T16:29:29;6.30;75.20
35491;DHT22;21605;52.068;20.806;2023-03-01T16:31:55;6.20;75.30
35491;DHT22;21605;52.068;20.806;2023-03-01T16:34:20;6.10;75.30
35491;DHT22;21605;52.068;20.806;2023-03-01T16:36:56;6.10;75.60
35491;DHT22;21605;52.068;20.806;2023-03-01T16:39:22;6.00;75.70
35491;DHT22;21605;52.068;20.806;2023-03-01T16:41:53;5.90;75.70
35491;DHT22;21605;52.068;20.806;2023-03-01T16:44:19;5.90;76.60
35491;DHT22;21605;52.068;20.806;2023-03-01T16:46:53;6.00;76.00
35491;DHT22;21605;52.068;20.806;2023-03-01T16:49:19;5.70;75.10
35491;DHT22;21605;52.068;20.806;2023-03-01T16:51:54;5.70;75.30
35491;DHT22;21605;52.068;20.806;2023-03-01T16:54:19;5.60;75.80
35491;DHT22;21605;52.068;20.806;2023-03-01T16:56:55;5.50;75.90
35491;DHT22;21605;52.068;20.806;2023-03-01T16:59:20;5.40;75.90
35491;DHT22;21605;52.068;20.806;2023-03-01T17:01:55;5.30;76.30
35491;DHT22;21605;52.068;20.806;2023-03-01T17:04:21;5.30;76.40
35491;DHT22;21605;52.068;20.806;2023-03-01T17:06:55;5.20;76.50
35491;DHT22;21605;52.068;20.806;2023-03-01T17:09:21;5.10;76.40
35491;DHT22;21605;52.068;20.806;2023-03-01T17:11:56;5.00;76.60
35491;DHT22;21605;52.068;20.806;2023-03-01T17:14:23;4.90;76.70
35491;DHT22;21605;52.068;20.806;2023-03-01T17:16:54;4.90;77.10
35491;DHT22;21605;52.068;20.806;2023-03-01T17:19:20;4.80;78.20
35491;DHT22;21605;52.068;20.806;2023-03-01T17:21:55;4.80;77.20
35491;DHT22;21605;52.068;20.806;2023-03-01T17:24:21;4.70;77.50
35491;DHT22;21605;52.068;20.806;2023-03-01T17:26:56;4.70;77.70
35491;DHT22;21605;52.068;20.806;2023-03-01T17:29:21;4.60;78.40
35491;DHT22;21605;52.068;20.806;2023-03-01T17:31:56;4.70;78.50
35491;DHT22;21605;52.068;20.806;2023-03-01T17:34:24;4.50;78.30
35491;DHT22;21605;52.068;20.806;2023-03-01T17:36:59;4.50;78.10
35491;DHT22;21605;52.068;20.806;2023-03-01T17:39:25;4.50;78.30
35491;DHT22;21605;52.068;20.806;2023-03-01T17:41:56;4.40;78.50
35491;DHT22;21605;52.068;20.806;2023-03-01T17:44:22;4.40;78.90
35491;DHT22;21605;52.068;20.806;2023-03-01T17:46:57;4.30;78.80
35491;DHT22;21605;52.068;20.806;2023-03-01T17:49:23;4.30;78.50
35491;DHT22;21605;52.068;20.806;2023-03-01T17:52:01;4.20;78.80